Map

Track Data

SID SEASON NUMBER BASIN SUBBASIN NAME ISO_TIME NATURE LAT LON WMO_WIND WMO_PRES WMO_AGENCY TRACK_TYPE DIST2LAND LANDFALL IFLAG USA_AGENCY USA_ATCF_ID USA_LAT USA_LON USA_RECORD USA_STATUS USA_WIND USA_PRES USA_SSHS USA_R34_NE USA_R34_SE USA_R34_SW USA_R34_NW USA_R50_NE USA_R50_SE USA_R50_SW USA_R50_NW USA_R64_NE USA_R64_SE USA_R64_SW USA_R64_NW USA_POCI USA_ROCI USA_RMW USA_EYE TOKYO_LAT TOKYO_LON TOKYO_GRADE TOKYO_WIND TOKYO_PRES TOKYO_R50_DIR TOKYO_R50_LONG TOKYO_R50_SHORT TOKYO_R30_DIR TOKYO_R30_LONG TOKYO_R30_SHORT TOKYO_LAND CMA_LAT CMA_LON CMA_CAT CMA_WIND CMA_PRES HKO_LAT HKO_LON HKO_CAT HKO_WIND HKO_PRES NEWDELHI_LAT NEWDELHI_LON NEWDELHI_GRADE NEWDELHI_WIND NEWDELHI_PRES NEWDELHI_CI NEWDELHI_DP NEWDELHI_POCI REUNION_LAT REUNION_LON REUNION_TYPE REUNION_WIND REUNION_PRES REUNION_TNUM REUNION_CI REUNION_RMW REUNION_R34_NE REUNION_R34_SE REUNION_R34_SW REUNION_R34_NW REUNION_R50_NE REUNION_R50_SE REUNION_R50_SW REUNION_R50_NW REUNION_R64_NE REUNION_R64_SE REUNION_R64_SW REUNION_R64_NW BOM_LAT BOM_LON BOM_TYPE BOM_WIND BOM_PRES BOM_TNUM BOM_CI BOM_RMW BOM_R34_NE BOM_R34_SE BOM_R34_SW BOM_R34_NW BOM_R50_NE BOM_R50_SE BOM_R50_SW BOM_R50_NW BOM_R64_NE BOM_R64_SE BOM_R64_SW BOM_R64_NW BOM_ROCI BOM_POCI BOM_EYE BOM_POS_METHOD BOM_PRES_METHOD NADI_LAT NADI_LON NADI_CAT NADI_WIND NADI_PRES WELLINGTON_LAT WELLINGTON_LON WELLINGTON_WIND WELLINGTON_PRES DS824_LAT DS824_LON DS824_STAGE DS824_WIND DS824_PRES TD9636_LAT TD9636_LON TD9636_STAGE TD9636_WIND TD9636_PRES TD9635_LAT TD9635_LON TD9635_WIND TD9635_PRES TD9635_ROCI NEUMANN_LAT NEUMANN_LON NEUMANN_CLASS NEUMANN_WIND NEUMANN_PRES MLC_LAT MLC_LON MLC_CLASS MLC_WIND MLC_PRES USA_GUST BOM_GUST BOM_GUST_PER REUNION_GUST REUNION_GUST_PER USA_SEAHGT USA_SEARAD_NE USA_SEARAD_SE USA_SEARAD_SW USA_SEARAD_NW STORM_SPEED STORM_DIR
1942004S17120 1942 1 SI WA NOT_NAMED 1942-01-03 23:00:00 NR -17.0000 119.800 main 253 250 __________O___ -1 -17.0000 119.800 7 6 0
1942004S17120 1942 1 SI WA NOT_NAMED 1942-01-04 00:00:00 NR -17.1004 119.819 main 250 250 __________P___ -1 -17.1004 119.819 7 1 0
1942004S17120 1942 1 SI WA NOT_NAMED 1942-01-04 01:00:00 NR -17.0251 119.804 992 bom main 253 250 ______O___P___ -1 -16.5000 119.700 992 -17.2002 119.838 7 1 0
1942004S17120 1942 1 SI WA NOT_NAMED 1942-01-04 03:00:00 NR -17.1452 119.846 main 250 235 ______P___P___ -1 -16.6463 119.786 -17.3946 119.876 7 4 160
1942004S17120 1942 1 SI WA NOT_NAMED 1942-01-04 06:00:00 NR -17.3243 119.922 main 235 217 ______P___P___ -1 -16.8730 119.914 -17.6629 119.929 7 4 157
1942004S17120 1942 1 SI WA NOT_NAMED 1942-01-04 09:00:00 NR -17.5020 120.005 main 217 202 ______P___P___ -1 -17.1181 120.035 -17.8860 119.975 7 4 159
1942004S17120 1942 1 SI WA NOT_NAMED 1942-01-04 11:00:00 NR -17.6487 120.055 main 202 196 ______P___O___ -1 -17.2973 120.109 -18.0000 120.000 7 5 163
1942004S17120 1942 1 SI WA NOT_NAMED 1942-01-04 12:00:00 NR -17.7189 120.078 main 196 186 ______P___P___ -1 -17.3929 120.145 -18.0450 120.011 7 4 164
1942004S17120 1942 1 SI WA NOT_NAMED 1942-01-04 15:00:00 NR -17.9312 120.140 main 186 164 ______P___P___ -1 -17.7086 120.240 -18.1538 120.040 7 5 166
1942004S17120 1942 1 SI WA NOT_NAMED 1942-01-04 18:00:00 NR -18.1765 120.197 main 164 138 ______P___P___ -1 -18.0763 120.317 -18.2768 120.078 7 6 169
1942004S17120 1942 1 SI WA NOT_NAMED 1942-01-04 21:00:00 NR -18.4950 120.255 main 138 118 ______P___P___ -1 -18.5074 120.371 -18.4827 120.139 7 7 171
1942004S17120 1942 1 SI WA NOT_NAMED 1942-01-04 23:00:00 NR -18.7677 120.296 main 109 98 ______P___O___ -1 -18.8355 120.392 -18.7000 120.200 7 9 171
1942004S17120 1942 1 SI WA NOT_NAMED 1942-01-05 00:00:00 TS -18.9505 120.330 main 88 79 ______P___P___ -1 -19.0130 120.398 -19.1000 120.400 TC 45 990 -18.8506 120.245 7 10 170
1942004S17120 1942 1 SI WA NOT_NAMED 1942-01-05 01:00:00 NR -19.1099 120.348 990 bom main 79 35 ______O___P___ -1 -19.2000 120.400 990 4 -19.0198 120.295 7 11 173
1942004S17120 1942 1 SI WA NOT_NAMED 1942-01-05 03:00:00 NR -19.5021 120.404 main 35 24 ______P___P___ -1 -19.5982 120.399 990 -19.4060 120.409 7 12 172
1942004S17120 1942 1 SI WA NOT_NAMED 1942-01-05 03:30:00 NR -19.6056 120.420 990 bom main 24 0 ______O___P___ -1 -19.7000 120.400 990 -19.5111 120.440 7 13 171
1942004S17120 1942 1 SI WA NOT_NAMED 1942-01-05 06:00:00 NR -20.1416 120.513 main 0 0 ______P___P___ -1 -20.2077 120.429 -20.0755 120.598 7 13 170
1942004S17120 1942 1 SI WA NOT_NAMED 1942-01-05 09:00:00 NR -20.8095 120.649 main 0 0 ______P___P___ -1 -20.8133 120.510 -20.8057 120.787 7 14 169
1942004S17120 1942 1 SI WA NOT_NAMED 1942-01-05 11:00:00 NR -21.2576 120.745 main 0 0 ______P___O___ -1 -21.2151 120.589 -21.3000 120.900 7 14 168
1942004S17120 1942 1 SI WA NOT_NAMED 1942-01-05 12:00:00 NR -21.4797 120.793 main 0 0 ______P___P___ -1 -21.4155 120.636 -21.5439 120.950 7 14 169
1942004S17120 1942 1 SI WA NOT_NAMED 1942-01-05 15:00:00 NR -22.1375 120.937 main 0 0 ______P___P___ -1 -22.0150 120.797 -22.2601 121.076 7 13 169
1942004S17120 1942 1 SI WA NOT_NAMED 1942-01-05 18:00:00 NR -22.7605 121.067 main 0 0 ______P___P___ -1 -22.6123 120.988 -22.9582 121.173 7 13 168
1942004S17120 1942 1 SI WA NOT_NAMED 1942-01-05 21:00:00 NR -23.3535 121.217 main 0 0 ______P___P___ -1 -23.2078 121.199 -23.6450 121.252 7 12 166
1942004S17120 1942 1 SI WA NOT_NAMED 1942-01-05 23:00:00 NR -23.7281 121.336 main 0 0 ______P___O___ -1 -23.6041 121.348 -24.1000 121.300 7 10 157
1942004S17120 1942 1 SI WA NOT_NAMED 1942-01-06 00:00:00 NR -23.8021 121.424 main 0 0 ______P_______ -1 -23.8021 121.424 7 9 152
1942004S17120 1942 1 SI WA NOT_NAMED 1942-01-06 01:00:00 NR -24.0000 121.500 994 bom main 0 ______O_______ -1 -24.0000 121.500 994 7 13 161

About IBTrACS Database

This database is a web-friendly format of International Best Track Archive for Climate Stewardship (IBTrACS), a global best track data archive curated by NOAA dating back to 1842.

Updated: 2021-10-21